createdAt,value
2022-11-24T00:01:13.455Z,100200.91
2022-11-24T00:03:15.350Z,100206.63
2022-11-24T00:05:17.026Z,100210.50
2022-11-24T00:07:18.678Z,100205.88
2022-11-24T00:09:20.159Z,100198.69
2022-11-24T00:11:25.217Z,100205.25
2022-11-24T00:13:27.319Z,100207.59
2022-11-24T00:15:29.035Z,100206.69
2022-11-24T00:17:30.512Z,100203.34
2022-11-24T00:19:32.101Z,100211.03
2022-11-24T00:21:33.832Z,100207.84
2022-11-24T00:23:36.424Z,100211.13
2022-11-24T00:25:38.075Z,100208.50
2022-11-24T00:27:40.949Z,100212.56
2022-11-24T00:29:42.579Z,100215.81
2022-11-24T00:31:43.997Z,100206.06
2022-11-24T00:33:46.701Z,100208.25
2022-11-24T00:35:54.556Z,100208.44
2022-11-24T00:37:56.210Z,100215.22
2022-11-24T00:39:57.757Z,100215.69
2022-11-24T00:41:59.385Z,100212.66
2022-11-24T00:44:02.553Z,100207.50
2022-11-24T00:46:04.476Z,100207.06
2022-11-24T00:48:06.468Z,100204.16
2022-11-24T00:50:08.760Z,100204.97
2022-11-24T00:52:10.479Z,100198.34
2022-11-24T00:54:12.170Z,100200.44
2022-11-24T00:56:13.815Z,100204.97
2022-11-24T00:58:15.745Z,100208.31
2022-11-24T01:00:19.200Z,100202.72
2022-11-24T01:02:20.854Z,100203.09
2022-11-24T01:04:22.310Z,100203.81
2022-11-24T01:06:25.492Z,100206.53
2022-11-24T01:08:27.125Z,100196.19
2022-11-24T01:10:28.552Z,100211.69
2022-11-24T01:12:30.200Z,100218.59
2022-11-24T01:14:32.256Z,100217.63
2022-11-24T01:16:35.670Z,100217.91
2022-11-24T01:18:37.313Z,100214.47
2022-11-24T01:20:38.958Z,100231.53
2022-11-24T01:22:40.460Z,100229.63
2022-11-24T01:24:42.092Z,100230.94
2022-11-24T01:26:43.704Z,100231.69
2022-11-24T01:28:47.357Z,100228.53
2022-11-24T01:30:57.346Z,100218.41
2022-11-24T01:33:00.478Z,100212.66
2022-11-24T01:35:02.218Z,100206.28
2022-11-24T01:37:03.645Z,100212.06
2022-11-24T01:39:05.337Z,100206.72
2022-11-24T01:41:07.965Z,100204.63
2022-11-24T01:43:16.386Z,100205.72
2022-11-24T01:45:32.425Z,100212.38
2022-11-24T01:47:36.165Z,100211.28
2022-11-24T01:49:44.525Z,100217.84
2022-11-24T01:51:52.936Z,100236.34
2022-11-24T01:53:59.132Z,100232.97
2022-11-24T01:56:00.952Z,100238.91
2022-11-24T01:58:06.565Z,100236.66
2022-11-24T02:00:10.877Z,100246.50
2022-11-24T02:02:13.373Z,100248.53
2022-11-24T02:04:19.453Z,100245.59
2022-11-24T02:06:25.434Z,100250.66
2022-11-24T02:08:34.890Z,100255.56
2022-11-24T02:10:37.457Z,100249.22
2022-11-24T02:12:42.196Z,100235.03
2022-11-24T02:14:44.690Z,100248.91
2022-11-24T02:16:49.503Z,100254.94
2022-11-24T02:18:51.580Z,100253.97
2022-11-24T02:20:53.238Z,100254.56
2022-11-24T02:22:59.443Z,100252.59
2022-11-24T02:25:06.757Z,100238.66
2022-11-24T02:27:10.628Z,100256.16
2022-11-24T02:29:14.159Z,100259.66
2022-11-24T02:31:15.958Z,100263.28
2022-11-24T02:33:19.282Z,100261.00
2022-11-24T02:35:21.148Z,100264.28
2022-11-24T02:37:22.864Z,100261.56
2022-11-24T02:39:24.361Z,100268.31
2022-11-24T02:41:27.644Z,100266.03
2022-11-24T02:43:35.219Z,100256.63
2022-11-24T02:45:37.002Z,100268.44
2022-11-24T02:47:38.646Z,100261.34
2022-11-24T02:49:40.135Z,100268.72
2022-11-24T02:51:41.870Z,100264.69
2022-11-24T02:53:43.596Z,100266.88
2022-11-24T02:55:45.157Z,100271.31
2022-11-24T02:57:47.100Z,100275.31
2022-11-24T02:59:50.159Z,100261.44
2022-11-24T03:01:52.152Z,100253.69
2022-11-24T03:03:53.846Z,100249.22
2022-11-24T03:05:55.241Z,100245.50
2022-11-24T03:07:56.953Z,100246.88
2022-11-24T03:09:58.670Z,100249.66
2022-11-24T03:12:00.113Z,100258.44
2022-11-24T03:14:01.832Z,100262.56
2022-11-24T03:16:07.713Z,100254.81
2022-11-24T03:18:09.437Z,100262.13
2022-11-24T03:20:11.376Z,100264.34
2022-11-24T03:22:13.392Z,100270.44
2022-11-24T03:24:15.035Z,100266.97
2022-11-24T03:26:18.858Z,100274.25
2022-11-24T03:28:20.531Z,100271.91
2022-11-24T03:30:21.949Z,100262.56
2022-11-24T03:32:25.175Z,100272.31
2022-11-24T03:34:26.770Z,100276.81
2022-11-24T03:36:28.436Z,100282.03
2022-11-24T03:38:29.975Z,100278.25
2022-11-24T03:40:31.583Z,100282.28
2022-11-24T03:42:33.580Z,100287.03
2022-11-24T03:44:35.438Z,100284.09
2022-11-24T03:46:37.370Z,100281.25
2022-11-24T03:48:40.494Z,100272.81
2022-11-24T03:50:42.242Z,100292.91
2022-11-24T03:52:43.921Z,100286.44
2022-11-24T03:54:45.451Z,100293.69
2022-11-24T03:56:47.116Z,100281.78
2022-11-24T03:58:48.552Z,100298.88
2022-11-24T04:00:51.426Z,100295.03
2022-11-24T04:02:53.228Z,100294.88
2022-11-24T04:04:56.264Z,100311.63
2022-11-24T04:06:57.878Z,100298.94
2022-11-24T04:09:00.208Z,100317.19
2022-11-24T04:11:01.851Z,100315.66
2022-11-24T04:13:03.597Z,100309.09
2022-11-24T04:15:06.310Z,100310.81
2022-11-24T04:17:08.007Z,100300.47
2022-11-24T04:19:09.529Z,100301.63
2022-11-24T04:21:12.608Z,100302.50
2022-11-24T04:23:14.241Z,100300.13
2022-11-24T04:25:15.984Z,100287.13
2022-11-24T04:27:17.466Z,100295.13
2022-11-24T04:29:19.071Z,100302.09
2022-11-24T04:31:20.777Z,100297.88
2022-11-24T04:33:22.269Z,100291.97
2022-11-24T04:35:24.626Z,100306.56
2022-11-24T04:37:27.763Z,100308.41
2022-11-24T04:39:29.497Z,100308.81
2022-11-24T04:41:30.930Z,100315.28
2022-11-24T04:43:37.732Z,100319.09
2022-11-24T04:45:41.971Z,100326.38
2022-11-24T04:47:43.606Z,100325.84
2022-11-24T04:49:47.021Z,100345.50
2022-11-24T04:51:48.807Z,100347.16
2022-11-24T04:53:51.764Z,100340.81
2022-11-24T04:55:53.357Z,100345.06
2022-11-24T04:57:55.253Z,100352.63
2022-11-24T04:59:56.859Z,100350.66
2022-11-24T05:01:58.613Z,100360.44
2022-11-24T05:04:00.535Z,100357.13
2022-11-24T05:06:02.443Z,100360.53
2022-11-24T05:08:04.618Z,100365.00
2022-11-24T05:10:08.517Z,100365.38
2022-11-24T05:12:10.091Z,100364.75
2022-11-24T05:14:11.641Z,100361.09
2022-11-24T05:16:13.394Z,100358.44
2022-11-24T05:18:15.517Z,100372.44
2022-11-24T05:20:17.420Z,100368.50
2022-11-24T05:22:19.048Z,100359.41
2022-11-24T05:24:20.402Z,100372.44
2022-11-24T05:26:23.320Z,100373.88
2022-11-24T05:28:24.909Z,100358.25
2022-11-24T05:30:26.614Z,100380.59
2022-11-24T05:32:27.954Z,100385.88
2022-11-24T05:34:29.626Z,100380.56
2022-11-24T05:36:30.994Z,100378.88
2022-11-24T05:38:33.240Z,100377.34
2022-11-24T05:40:34.816Z,100382.84
2022-11-24T05:42:40.890Z,100390.06
2022-11-24T05:44:46.630Z,100381.00
2022-11-24T05:46:48.349Z,100373.22
2022-11-24T05:48:49.951Z,100387.16
2022-11-24T05:50:54.321Z,100395.91
2022-11-24T05:52:55.913Z,100396.91
2022-11-24T05:54:57.451Z,100401.94
2022-11-24T05:56:59.001Z,100406.88
2022-11-24T05:59:08.191Z,100404.34
2022-11-24T06:01:11.311Z,100406.22
2022-11-24T06:03:13.132Z,100401.09
2022-11-24T06:05:14.880Z,100406.69
2022-11-24T06:07:16.736Z,100404.84
2022-11-24T06:09:18.423Z,100402.22
2022-11-24T06:11:19.802Z,100419.03
2022-11-24T06:13:21.717Z,100413.81
2022-11-24T06:15:24.819Z,100419.84
2022-11-24T06:17:26.401Z,100418.53
2022-11-24T06:19:28.033Z,100422.06
2022-11-24T06:21:30.161Z,100426.72
2022-11-24T06:23:31.838Z,100434.56
2022-11-24T06:25:33.255Z,100435.94
2022-11-24T06:27:34.801Z,100439.81
2022-11-24T06:29:36.414Z,100439.94
2022-11-24T06:31:39.425Z,100445.94
2022-11-24T06:33:41.130Z,100447.00
2022-11-24T06:35:42.714Z,100446.94
2022-11-24T06:37:44.295Z,100450.25
2022-11-24T06:39:45.947Z,100455.91
2022-11-24T06:41:50.280Z,100464.47
2022-11-24T06:43:51.970Z,100455.03
2022-11-24T06:45:53.474Z,100454.22
2022-11-24T06:47:56.863Z,100440.09
2022-11-24T06:50:00.573Z,100457.56
2022-11-24T06:52:02.405Z,100451.22
2022-11-24T06:54:09.481Z,100449.44
2022-11-24T06:56:16.311Z,100462.25
2022-11-24T06:58:18.604Z,100461.38
2022-11-24T07:00:20.530Z,100463.91
2022-11-24T07:02:22.105Z,100472.56
2022-11-24T07:04:25.033Z,100468.72
2022-11-24T07:06:26.995Z,100466.94
2022-11-24T07:08:28.612Z,100469.69
2022-11-24T07:10:30.201Z,100465.59
2022-11-24T07:12:34.282Z,100458.41
2022-11-24T07:14:36.288Z,100465.38
2022-11-24T07:16:40.314Z,100472.59
2022-11-24T07:18:42.291Z,100468.63
2022-11-24T07:20:45.582Z,100459.84
2022-11-24T07:22:47.206Z,100474.69
2022-11-24T07:24:48.787Z,100468.38
2022-11-24T07:26:50.457Z,100467.72
2022-11-24T07:28:52.014Z,100477.59
2022-11-24T07:30:53.642Z,100480.41
2022-11-24T07:32:58.779Z,100484.41
2022-11-24T07:35:00.435Z,100495.50
2022-11-24T07:37:03.372Z,100490.75
2022-11-24T07:39:06.372Z,100489.63
2022-11-24T07:41:10.711Z,100490.69
2022-11-24T07:43:15.864Z,100496.50
2022-11-24T07:45:24.928Z,100495.66
2022-11-24T07:47:26.505Z,100504.38
2022-11-24T07:49:28.147Z,100513.97
2022-11-24T07:51:29.584Z,100506.97
2022-11-24T07:53:33.092Z,100508.47
2022-11-24T07:55:34.758Z,100505.19
2022-11-24T07:57:36.596Z,100512.53
2022-11-24T07:59:38.177Z,100511.91
2022-11-24T08:01:40.144Z,100507.63
2022-11-24T08:03:42.781Z,100502.13
2022-11-24T08:06:16.056Z,100507.63
2022-11-24T08:08:14.539Z,100509.53
2022-11-24T08:10:18.018Z,100508.41
2022-11-24T08:12:19.844Z,100512.00
2022-11-24T08:14:21.656Z,100514.94
2022-11-24T08:16:23.634Z,100504.69
2022-11-24T08:18:25.265Z,100503.56
2022-11-24T08:20:26.937Z,100500.16
2022-11-24T08:22:28.308Z,100508.06
2022-11-24T08:24:29.836Z,100508.88
2022-11-24T08:26:32.774Z,100514.09
2022-11-24T08:28:34.975Z,100509.63
2022-11-24T08:30:36.622Z,100506.63
2022-11-24T08:32:37.993Z,100510.69
2022-11-24T08:34:39.485Z,100506.22
2022-11-24T08:36:41.168Z,100509.22
2022-11-24T08:38:42.885Z,100521.38
2022-11-24T08:40:44.494Z,100490.38
2022-11-24T08:42:47.450Z,100513.84
2022-11-24T08:44:49.109Z,100517.06
2022-11-24T08:46:50.612Z,100520.22
2022-11-24T08:48:53.934Z,100516.72
2022-11-24T08:50:55.881Z,100515.28
2022-11-24T08:52:57.507Z,100521.34
2022-11-24T08:54:58.949Z,100517.66
2022-11-24T08:57:00.707Z,100520.50
2022-11-24T08:59:04.894Z,100518.53
2022-11-24T09:01:08.661Z,100518.53
2022-11-24T09:03:11.510Z,100525.78
2022-11-24T09:05:49.672Z,100529.91
2022-11-24T09:07:34.799Z,100544.06
2022-11-24T09:09:36.286Z,100545.34
2022-11-24T09:11:37.870Z,100544.75
2022-11-24T09:13:40.644Z,100546.22
2022-11-24T09:15:43.679Z,100539.94
2022-11-24T09:17:45.260Z,100546.44
2022-11-24T09:19:46.787Z,100544.94
2022-11-24T09:21:48.390Z,100536.31
2022-11-24T09:23:50.598Z,100557.88
2022-11-24T09:25:52.157Z,100567.34
2022-11-24T09:27:53.756Z,100568.28
2022-11-24T09:29:55.121Z,100563.38
2022-11-24T09:32:02.119Z,100560.88
2022-11-24T09:34:11.300Z,100565.00
2022-11-24T09:36:13.658Z,100558.47
2022-11-24T09:38:15.413Z,100563.94
2022-11-24T09:40:18.035Z,100558.38
2022-11-24T09:42:30.995Z,100564.00
2022-11-24T09:44:49.351Z,100568.06
2022-11-24T09:47:00.617Z,100564.25
2022-11-24T09:49:06.627Z,100559.56
2022-11-24T09:51:12.461Z,100566.25
2022-11-24T09:53:20.172Z,100559.53
2022-11-24T09:55:29.504Z,100568.25
2022-11-24T09:57:37.440Z,100568.88
2022-11-24T09:59:41.084Z,100573.63
2022-11-24T10:01:44.424Z,100566.56
2022-11-24T10:03:48.676Z,100574.94
2022-11-24T10:05:53.273Z,100581.53
2022-11-24T10:08:11.624Z,100580.00
2022-11-24T10:10:24.331Z,100581.13
2022-11-24T10:12:41.194Z,100582.75
2022-11-24T10:15:07.679Z,100577.97
2022-11-24T10:17:23.974Z,100575.16
2022-11-24T10:19:40.131Z,100579.03
2022-11-24T10:22:05.138Z,100577.72
2022-11-24T10:24:39.182Z,100578.50
2022-11-24T10:26:47.506Z,100588.34
2022-11-24T10:28:53.412Z,100560.28
2022-11-24T10:31:11.540Z,100580.13
2022-11-24T10:33:24.254Z,100587.22
2022-11-24T10:35:36.221Z,100584.34
2022-11-24T10:37:45.698Z,100575.94
2022-11-24T10:40:00.016Z,100567.53
2022-11-24T10:42:10.811Z,100586.41
2022-11-24T10:44:13.260Z,100583.88
2022-11-24T10:46:19.493Z,100576.56
2022-11-24T10:48:26.006Z,100585.91
2022-11-24T10:50:31.378Z,100579.50
2022-11-24T10:52:40.471Z,100587.03
2022-11-24T10:54:56.410Z,100575.00
2022-11-24T10:56:57.989Z,100577.00
2022-11-24T10:59:19.429Z,100583.84
2022-11-24T11:01:30.501Z,100579.09
2022-11-24T11:03:33.038Z,100569.19
2022-11-24T11:05:39.414Z,100595.59
2022-11-24T11:07:41.012Z,100599.41
2022-11-24T11:09:42.726Z,100605.38
2022-11-24T11:11:46.634Z,100601.50
2022-11-24T11:13:58.234Z,100598.91
2022-11-24T11:16:19.126Z,100601.38
2022-11-24T11:18:21.588Z,100598.75
2022-11-24T11:20:28.768Z,100590.34
2022-11-24T11:22:32.774Z,100581.19
2022-11-24T11:24:34.373Z,100593.63
2022-11-24T11:26:36.798Z,100596.19
2022-11-24T11:28:39.705Z,100584.31
2022-11-24T11:35:25.931Z,100589.69
2022-11-24T11:37:30.872Z,100580.06
2022-11-24T11:39:35.248Z,100586.41
2022-11-24T11:41:42.106Z,100583.97
2022-11-24T11:43:47.891Z,100584.28
2022-11-24T11:45:59.329Z,100585.78
2022-11-24T11:48:17.676Z,100568.38
2022-11-24T11:50:25.440Z,100590.97
2022-11-24T11:53:00.028Z,100593.13
2022-11-24T11:55:31.842Z,100582.91
2022-11-24T11:57:38.796Z,100598.19
2022-11-24T12:00:12.704Z,100593.34
2022-11-24T12:02:53.290Z,100594.25
2022-11-24T12:05:00.046Z,100595.00
2022-11-24T12:07:43.945Z,100608.44
2022-11-24T12:09:57.778Z,100600.75
2022-11-24T12:12:15.500Z,100606.31
2022-11-24T12:14:29.467Z,100601.72
2022-11-24T12:16:44.043Z,100600.91
2022-11-24T12:18:58.243Z,100597.59
2022-11-24T12:21:09.039Z,100601.59
2022-11-24T12:23:22.097Z,100585.16
2022-11-24T12:25:29.212Z,100596.09
2022-11-24T12:27:41.850Z,100588.13
2022-11-24T12:29:56.982Z,100591.34
2022-11-24T12:32:11.472Z,100590.09
2022-11-24T12:34:29.228Z,100588.38
2022-11-24T12:36:44.538Z,100590.31
2022-11-24T12:38:56.977Z,100545.78
2022-11-24T12:43:40.337Z,100592.13
2022-11-24T12:45:49.917Z,100596.44
2022-11-24T12:48:26.907Z,100587.16
2022-11-24T12:50:33.018Z,100601.06
2022-11-24T12:52:40.156Z,100606.47
2022-11-24T12:54:41.758Z,100594.16
2022-11-24T12:56:45.019Z,100608.47
2022-11-24T12:58:54.425Z,100609.75
2022-11-24T13:01:11.679Z,100605.00
2022-11-24T13:03:30.677Z,100599.84
2022-11-24T13:05:41.215Z,100604.59
2022-11-24T13:07:47.487Z,100604.72
2022-11-24T13:10:53.993Z,100602.16
2022-11-24T13:12:56.481Z,100600.56
2022-11-24T13:14:58.314Z,100602.41
2022-11-24T13:19:24.885Z,100599.69
2022-11-24T13:21:50.357Z,100611.53
2022-11-24T13:23:56.501Z,100608.19
2022-11-24T13:26:27.662Z,100625.31
2022-11-24T13:29:09.243Z,100630.47
2022-11-24T13:31:22.723Z,100632.63
2022-11-24T13:33:30.481Z,100640.69
2022-11-24T13:35:32.107Z,100637.75
2022-11-24T13:37:49.204Z,100645.13
2022-11-24T13:39:53.186Z,100648.59
2022-11-24T13:42:03.585Z,100647.84
2022-11-24T13:44:23.215Z,100652.16
2022-11-24T13:47:04.873Z,100655.06
2022-11-24T13:49:13.919Z,100640.84
2022-11-24T13:51:21.368Z,100662.13
2022-11-24T13:53:31.419Z,100666.25
2022-11-24T13:55:36.445Z,100662.69
2022-11-24T13:57:39.586Z,100671.31
2022-11-24T13:59:41.820Z,100676.03
2022-11-24T14:01:44.665Z,100670.22
2022-11-24T14:04:29.787Z,100665.34
2022-11-24T14:06:29.595Z,100671.44
2022-11-24T14:08:37.520Z,100672.50
2022-11-24T14:10:41.064Z,100677.16
2022-11-24T14:12:42.628Z,100681.03
2022-11-24T14:14:44.972Z,100684.66
2022-11-24T14:16:46.606Z,100693.63
2022-11-24T14:18:49.692Z,100689.09
2022-11-24T14:20:51.300Z,100696.63
2022-11-24T14:22:53.639Z,100685.81
2022-11-24T14:24:58.148Z,100691.78
2022-11-24T14:27:01.098Z,100697.94
2022-11-24T14:29:07.344Z,100701.91
2022-11-24T14:31:16.454Z,100692.25
2022-11-24T14:33:19.746Z,100686.72
2022-11-24T14:35:23.548Z,100706.75
2022-11-24T14:37:25.169Z,100706.34
2022-11-24T14:39:27.152Z,100701.22
2022-11-24T14:41:31.872Z,100715.38
2022-11-24T14:43:33.603Z,100711.34
2022-11-24T14:45:35.532Z,100716.00
2022-11-24T14:47:44.642Z,100712.50
2022-11-24T14:49:46.718Z,100715.78
2022-11-24T14:51:55.469Z,100712.47
2022-11-24T14:54:00.748Z,100703.53
2022-11-24T14:56:23.315Z,100714.22
2022-11-24T14:58:31.935Z,100712.47
2022-11-24T15:00:33.869Z,100699.16
2022-11-24T15:02:39.345Z,100716.97
2022-11-24T15:05:02.671Z,100720.53
2022-11-24T15:07:13.866Z,100730.94
2022-11-24T15:09:28.313Z,100735.84
2022-11-24T15:11:30.641Z,100734.69
2022-11-24T15:13:36.522Z,100744.59
2022-11-24T15:15:39.263Z,100738.75
2022-11-24T15:17:47.582Z,100745.13
2022-11-24T15:19:53.524Z,100731.94
2022-11-24T15:21:55.156Z,100742.41
2022-11-24T15:24:14.936Z,100741.59
2022-11-24T15:26:28.831Z,100740.44
2022-11-24T15:28:33.534Z,100739.88
2022-11-24T15:30:36.398Z,100746.84
2022-11-24T15:32:48.651Z,100745.47
2022-11-24T15:34:50.154Z,100742.09
2022-11-24T15:36:51.690Z,100751.13
2022-11-24T15:38:53.195Z,100750.41
2022-11-24T15:40:56.126Z,100757.41
2022-11-24T15:43:01.940Z,100759.06
2022-11-24T15:45:09.318Z,100769.09
2022-11-24T15:47:10.878Z,100766.56
2022-11-24T15:49:12.589Z,100771.50
2022-11-24T15:51:14.486Z,100762.88
2022-11-24T15:53:19.305Z,100774.59
2022-11-24T15:55:22.202Z,100763.56
2022-11-24T15:57:23.982Z,100778.75
2022-11-24T15:59:25.509Z,100782.00
2022-11-24T16:01:29.365Z,100779.84
2022-11-24T16:03:48.257Z,100774.69
2022-11-24T16:05:53.964Z,100765.06
2022-11-24T16:07:55.604Z,100777.47
2022-11-24T16:09:57.197Z,100782.88
2022-11-24T16:11:59.109Z,100790.06
2022-11-24T16:14:00.688Z,100784.34
2022-11-24T16:16:02.350Z,100783.31
2022-11-24T16:18:06.263Z,100787.09
2022-11-24T16:20:08.768Z,100786.56
2022-11-24T16:22:10.294Z,100792.50
2022-11-24T16:24:11.712Z,100794.97
2022-11-24T16:26:13.399Z,100793.53
2022-11-24T16:28:15.034Z,100799.06
2022-11-24T16:30:16.916Z,100805.31
2022-11-24T16:32:18.515Z,100808.78
2022-11-24T16:34:21.510Z,100797.38
2022-11-24T16:36:23.083Z,100805.84
2022-11-24T16:38:24.794Z,100809.00
2022-11-24T16:40:26.394Z,100805.09
2022-11-24T16:42:28.384Z,100792.91
2022-11-24T16:44:29.923Z,100804.13
2022-11-24T16:46:31.348Z,100807.50
2022-11-24T16:48:35.919Z,100805.56
2022-11-24T16:50:39.007Z,100810.16
2022-11-24T16:52:40.572Z,100806.22
2022-11-24T16:54:41.912Z,100805.50
2022-11-24T16:56:43.514Z,100805.88
2022-11-24T16:58:45.074Z,100796.88
2022-11-24T17:00:46.428Z,100815.59
2022-11-24T17:02:48.193Z,100821.44
2022-11-24T17:04:49.840Z,100811.94
2022-11-24T17:06:52.777Z,100810.69
2022-11-24T17:08:55.229Z,100815.28
2022-11-24T17:10:56.814Z,100811.53
2022-11-24T17:12:58.351Z,100816.19
2022-11-24T17:15:30.493Z,100808.69
2022-11-24T17:17:21.331Z,100816.41
2022-11-24T17:19:22.970Z,100819.22
2022-11-24T17:21:26.722Z,100820.25
2022-11-24T17:23:29.668Z,100812.69
2022-11-24T17:25:31.975Z,100818.66
2022-11-24T17:27:33.608Z,100819.59
2022-11-24T17:29:35.179Z,100815.47
2022-11-24T17:31:36.780Z,100823.22
2022-11-24T17:33:38.435Z,100824.81
2022-11-24T17:35:39.944Z,100821.56
2022-11-24T17:37:41.280Z,100828.88
2022-11-24T17:39:54.777Z,100825.34
2022-11-24T17:42:07.736Z,100822.28
2022-11-24T17:44:09.569Z,100811.75
2022-11-24T17:46:11.493Z,100819.38
2022-11-24T17:48:13.213Z,100825.28
2022-11-24T17:50:14.872Z,100826.03
2022-11-24T17:52:16.882Z,100827.75
2022-11-24T17:56:41.994Z,100843.00
2022-11-24T17:58:43.749Z,100842.94
2022-11-24T18:00:45.469Z,100834.06
2022-11-24T18:02:47.114Z,100832.13
2022-11-24T18:04:49.051Z,100826.03
2022-11-24T18:06:50.639Z,100819.97
2022-11-24T18:08:53.392Z,100823.47
2022-11-24T18:11:03.003Z,100837.13
2022-11-24T18:13:06.232Z,100829.41
2022-11-24T18:15:08.638Z,100830.28
2022-11-24T18:17:10.302Z,100844.09
2022-11-24T18:19:12.104Z,100848.97
2022-11-24T18:21:16.350Z,100857.44
2022-11-24T18:23:18.541Z,100854.75
2022-11-24T18:25:20.174Z,100861.59
2022-11-24T18:27:21.790Z,100858.75
2022-11-24T18:29:24.732Z,100867.72
2022-11-24T18:31:26.468Z,100858.75
2022-11-24T18:33:28.033Z,100862.38
2022-11-24T18:35:29.529Z,100854.25
2022-11-24T18:37:31.177Z,100860.59
2022-11-24T18:39:32.822Z,100856.97
2022-11-24T18:41:35.129Z,100854.00
2022-11-24T18:43:36.833Z,100858.00
2022-11-24T18:45:39.836Z,100856.50
2022-11-24T18:47:41.465Z,100854.25
2022-11-24T18:49:42.984Z,100860.91
2022-11-24T18:51:45.006Z,100866.56
2022-11-24T18:53:50.629Z,100870.66
2022-11-24T18:55:56.879Z,100866.78
2022-11-24T18:57:58.401Z,100863.13
2022-11-24T18:59:59.788Z,100867.59
2022-11-24T19:02:02.811Z,100871.84
2022-11-24T19:04:04.494Z,100867.81
2022-11-24T19:06:08.043Z,100865.63
2022-11-24T19:08:09.606Z,100872.53
2022-11-24T19:10:11.349Z,100870.09
2022-11-24T19:12:13.148Z,100868.16
2022-11-24T19:14:17.489Z,100870.91
2022-11-24T19:16:20.467Z,100868.88
2022-11-24T19:18:23.513Z,100868.69
2022-11-24T19:20:28.575Z,100865.38
2022-11-24T19:22:30.073Z,100865.75
2022-11-24T19:24:31.436Z,100863.69
2022-11-24T19:26:33.222Z,100862.44
2022-11-24T19:28:34.885Z,100860.38
2022-11-24T19:30:36.488Z,100865.16
2022-11-24T19:32:37.885Z,100865.06
2022-11-24T19:34:40.804Z,100863.16
2022-11-24T19:36:42.529Z,100865.88
2022-11-24T19:38:49.533Z,100864.06
2022-11-24T19:40:51.053Z,100865.06
2022-11-24T19:42:53.127Z,100869.56
2022-11-24T19:44:56.673Z,100880.16
2022-11-24T19:46:58.510Z,100875.09
2022-11-24T19:49:00.765Z,100875.88
2022-11-24T19:51:05.647Z,100890.94
2022-11-24T19:53:07.257Z,100885.06
2022-11-24T19:55:11.630Z,100876.47
2022-11-24T19:57:13.194Z,100885.00
2022-11-24T19:59:14.799Z,100883.34
2022-11-24T20:01:17.915Z,100888.03
2022-11-24T20:03:19.539Z,100897.06
2022-11-24T20:05:20.929Z,100904.72
2022-11-24T20:07:24.197Z,100900.28
2022-11-24T20:09:25.975Z,100912.22
2022-11-24T20:11:28.527Z,100918.69
2022-11-24T20:13:30.445Z,100922.72
2022-11-24T20:15:33.574Z,100929.25
2022-11-24T20:17:35.221Z,100929.53
2022-11-24T20:19:36.799Z,100922.78
2022-11-24T20:21:38.967Z,100923.25
2022-11-24T20:23:42.534Z,100922.78
2022-11-24T20:25:44.062Z,100926.56
2022-11-24T20:27:45.681Z,100935.75
2022-11-24T20:29:47.295Z,100913.78
2022-11-24T20:31:49.800Z,100936.97
2022-11-24T20:33:51.473Z,100929.47
2022-11-24T20:35:52.785Z,100928.91
2022-11-24T20:37:54.593Z,100931.50
2022-11-24T20:39:57.556Z,100935.91
2022-11-24T20:41:59.061Z,100932.31
2022-11-24T20:44:02.745Z,100928.81
2022-11-24T20:46:05.853Z,100929.25
2022-11-24T20:48:07.463Z,100945.13
2022-11-24T20:50:09.896Z,100939.78
2022-11-24T20:52:11.528Z,100942.38
2022-11-24T20:54:13.530Z,100945.81
2022-11-24T20:56:18.497Z,100948.44
2022-11-24T20:58:20.021Z,100956.41
2022-11-24T21:00:21.705Z,100948.19
2022-11-24T21:02:23.418Z,100948.06
2022-11-24T21:04:26.777Z,100955.13
2022-11-24T21:06:28.754Z,100946.69
2022-11-24T21:08:33.035Z,100936.16
2022-11-24T21:10:34.587Z,100948.38
2022-11-24T21:12:37.293Z,100948.44
2022-11-24T21:14:38.994Z,100943.50
2022-11-24T21:16:41.898Z,100948.69
2022-11-24T21:18:44.892Z,100946.47
2022-11-24T21:20:46.652Z,100946.63
2022-11-24T21:22:48.238Z,100958.09
2022-11-24T21:24:49.773Z,100957.09
2022-11-24T21:26:51.404Z,100957.91
2022-11-24T21:28:54.282Z,100956.78
2022-11-24T21:30:55.867Z,100958.50
2022-11-24T21:32:57.337Z,100949.53
2022-11-24T21:34:58.911Z,100957.56
2022-11-24T21:37:00.233Z,100963.91
2022-11-24T21:39:03.375Z,100931.13
2022-11-24T21:41:07.600Z,100961.19
2022-11-24T21:43:09.141Z,100955.22
2022-11-24T21:45:12.047Z,100959.16
2022-11-24T21:47:13.639Z,100962.75
2022-11-24T21:49:14.946Z,100964.00
2022-11-24T21:51:18.138Z,100971.22
2022-11-24T21:53:19.669Z,100973.34
2022-11-24T21:55:21.005Z,100975.03
2022-11-24T21:57:22.547Z,100980.19
2022-11-24T21:59:23.867Z,100980.59
2022-11-24T22:01:28.335Z,100974.66
2022-11-24T22:03:29.995Z,100981.41
2022-11-24T22:05:31.319Z,100977.88
2022-11-24T22:07:33.149Z,100969.63
2022-11-24T22:09:34.723Z,100974.09
2022-11-24T22:11:36.043Z,100977.00
2022-11-24T22:13:37.981Z,100974.13
2022-11-24T22:15:39.524Z,100979.69
2022-11-24T22:17:42.297Z,100972.44
2022-11-24T22:19:43.820Z,100974.09
2022-11-24T22:21:45.215Z,100977.22
2022-11-24T22:23:50.303Z,100976.34
2022-11-24T22:25:51.845Z,100973.75
2022-11-24T22:27:53.226Z,100981.53
2022-11-24T22:29:59.148Z,100979.81
2022-11-24T22:32:00.750Z,100989.38
2022-11-24T22:34:04.784Z,100973.00
2022-11-24T22:36:07.418Z,100972.00
2022-11-24T22:38:08.939Z,100993.06
2022-11-24T22:40:10.708Z,100985.94
2022-11-24T22:42:12.336Z,100978.44
2022-11-24T22:44:13.872Z,100962.69
2022-11-24T22:46:15.935Z,100982.41
2022-11-24T22:48:17.531Z,100981.66
2022-11-24T22:50:20.277Z,100983.19
2022-11-24T22:52:21.864Z,100989.78
2022-11-24T22:54:23.216Z,100996.19
2022-11-24T22:56:25.211Z,100993.56
2022-11-24T22:58:26.798Z,100989.59
2022-11-24T23:00:28.371Z,101000.91
2022-11-24T23:02:29.750Z,100996.28
2022-11-24T23:04:31.304Z,100994.50
2022-11-24T23:06:34.054Z,100993.13
2022-11-24T23:08:36.435Z,100992.75
2022-11-24T23:10:38.124Z,100989.66
2022-11-24T23:12:39.674Z,100999.31
2022-11-24T23:14:41.035Z,100995.50
2022-11-24T23:16:43.069Z,100999.22
2022-11-24T23:18:51.033Z,101002.59
2022-11-24T23:20:55.216Z,100999.72
2022-11-24T23:22:57.926Z,100993.03
2022-11-24T23:24:59.475Z,100992.16
2022-11-24T23:27:00.788Z,100999.72
2022-11-24T23:29:02.788Z,100987.16
2022-11-24T23:31:06.659Z,100986.75
2022-11-24T23:33:08.195Z,100995.84
2022-11-24T23:35:13.615Z,100998.66
2022-11-24T23:37:15.602Z,100986.41
2022-11-24T23:39:18.314Z,100999.56
2022-11-24T23:41:21.450Z,100994.28
2022-11-24T23:43:28.417Z,101001.09
2022-11-24T23:45:30.024Z,101005.72
2022-11-24T23:47:31.953Z,101012.69
2022-11-24T23:49:33.589Z,101016.06
2022-11-24T23:51:34.903Z,101013.25
2022-11-24T23:53:36.988Z,101005.03